Time;durP1;ratioP1;P1;durP2;ratioP2;P2;SDS_P1;SDS_P2;PMS_P1;PMS_P2;Temp;Humidity;BMP_temperature;BMP_pressure;BME280_temperature;BME280_humidity;BME280_pressure;Samples;Min_cycle;Max_cycle;Signal;HPM_P1;HPM_P2
2022/08/11 00:01:19;;;;;;;5.15;3.28;;;22.40;99.90;;;;;;5028826;28;20183;-61
2022/08/11 00:03:59;;;;;;;3.95;3.00;;;22.40;99.90;;;;;;5029132;28;20340;-60
2022/08/11 00:06:34;;;;;;;3.58;2.80;;;22.30;99.90;;;;;;5030726;28;20179;-61
2022/08/11 00:09:02;;;;;;;3.05;2.70;;;22.30;99.90;;;;;;5032805;28;20209;-60
2022/08/11 00:11:43;;;;;;;2.88;2.55;;;22.20;99.90;;;;;;5029688;28;20193;-61
2022/08/11 00:14:18;;;;;;;3.40;3.20;;;22.10;99.90;;;;;;5034214;28;20265;-65
2022/08/11 00:17:03;;;;;;;2.90;2.40;;;22.10;99.90;;;;;;5033980;28;20174;-60
2022/08/11 00:19:32;;;;;;;2.97;2.78;;;22.10;99.90;;;;;;5028029;28;20293;-60
2022/08/11 00:21:58;;;;;;;2.88;2.55;;;22.10;99.90;;;;;;5034782;28;20183;-63
2022/08/11 00:24:31;;;;;;;3.40;2.85;;;22.00;99.90;;;;;;5035257;28;20694;-61
2022/08/11 00:26:57;;;;;;;5.63;3.38;;;22.00;99.90;;;;;;5025639;28;20194;-61
2022/08/11 00:29:22;;;;;;;3.10;2.88;;;22.00;99.90;;;;;;5033341;28;20190;-60
2022/08/11 00:31:53;;;;;;;3.03;2.47;;;22.00;99.90;;;;;;5032646;28;20281;-64
2022/08/11 00:34:27;;;;;;;4.75;3.17;;;22.00;99.90;;;;;;5039347;28;20677;-61
2022/08/11 00:36:56;;;;;;;3.53;3.22;;;21.90;99.90;;;;;;5034069;28;20298;-60
2022/08/11 00:39:23;;;;;;;4.00;2.95;;;21.90;99.90;;;;;;5035048;28;20229;-60
2022/08/11 00:42:04;;;;;;;3.53;2.60;;;21.80;99.90;;;;;;5034000;28;20205;-61
2022/08/11 00:44:54;;;;;;;5.10;3.35;;;21.80;99.90;;;;;;5041341;28;20745;-61
2022/08/11 00:47:34;;;;;;;3.30;2.60;;;21.80;99.90;;;;;;5032387;28;20271;-61
2022/08/11 00:50:31;;;;;;;2.92;2.65;;;21.80;99.90;;;;;;5038581;28;20281;-61
2022/08/11 00:53:24;;;;;;;7.32;2.90;;;21.70;99.90;;;;;;5026025;28;20685;-61
2022/08/11 00:56:12;;;;;;;3.85;2.42;;;21.60;99.90;;;;;;5031825;28;20182;-61
2022/08/11 00:59:07;;;;;;;3.47;3.00;;;21.60;99.90;;;;;;5042305;28;20215;-61
2022/08/11 01:01:37;;;;;;;7.93;3.22;;;21.60;99.90;;;;;;5033671;28;20560;-61
2022/08/11 01:04:33;;;;;;;3.30;3.00;;;21.60;99.90;;;;;;5031741;28;20682;-61
2022/08/11 01:07:25;;;;;;;2.97;2.78;;;21.60;99.90;;;;;;5032603;28;20187;-65
2022/08/11 01:10:28;;;;;;;5.40;2.78;;;21.50;99.90;;;;;;5024662;28;20182;-61
2022/08/11 01:13:14;;;;;;;3.33;2.60;;;21.40;99.90;;;;;;5022333;28;20294;-60
2022/08/11 01:15:49;;;;;;;3.30;3.10;;;21.40;99.90;;;;;;5033757;28;20217;-60
2022/08/11 01:18:53;;;;;;;2.65;2.45;;;21.30;99.90;;;;;;5033528;28;20200;-63
2022/08/11 01:21:39;;;;;;;3.63;3.15;;;21.30;99.90;;;;;;5033267;28;20184;-61
2022/08/11 01:24:27;;;;;;;2.92;2.60;;;21.30;99.90;;;;;;5032241;28;20214;-61
2022/08/11 01:27:09;;;;;;;3.47;3.17;;;21.20;99.90;;;;;;5031801;28;20266;-61
2022/08/11 01:30:12;;;;;;;3.35;2.72;;;21.20;99.90;;;;;;5030424;28;20221;-61
2022/08/11 01:33:03;;;;;;;5.03;2.92;;;21.10;99.90;;;;;;5032803;28;20182;-61
2022/08/11 01:35:59;;;;;;;2.75;2.55;;;21.00;99.90;;;;;;5020486;28;20674;-61
2022/08/11 01:38:43;;;;;;;3.15;2.78;;;21.00;99.90;;;;;;5030692;28;20183;-61
2022/08/11 01:44:36;;;;;;;2.63;2.42;;;20.90;99.90;;;;;;5030093;28;20190;-62
2022/08/11 01:44:38;;;;;;;2.95;2.75;;;20.80;99.90;;;;;;5032652;28;20241;-60
2022/08/11 01:50:24;;;;;;;6.43;2.95;;;20.80;99.90;;;;;;5015655;28;20333;-60
2022/08/11 01:53:22;;;;;;;3.90;2.72;;;20.90;99.90;;;;;;5009837;28;20670;-63
2022/08/11 01:56:07;;;;;;;9.48;3.22;;;20.80;99.90;;;;;;5033077;28;20218;-62
2022/08/11 01:58:42;;;;;;;5.05;3.03;;;20.80;99.90;;;;;;5017177;28;20218;-60
2022/08/11 02:01:22;;;;;;;3.42;3.13;;;20.70;99.90;;;;;;5029077;28;20190;-63
2022/08/11 02:04:07;;;;;;;3.20;2.88;;;20.70;99.90;;;;;;5025944;28;20210;-60
2022/08/11 02:07:04;;;;;;;2.97;2.60;;;20.60;99.90;;;;;;5039297;28;20206;-61
2022/08/11 02:09:53;;;;;;;3.35;2.83;;;20.50;99.90;;;;;;5027620;28;20670;-61
2022/08/11 02:12:49;;;;;;;4.00;3.38;;;20.50;99.90;;;;;;5032376;28;20175;-61
2022/08/11 02:15:49;;;;;;;3.47;3.05;;;20.40;99.90;;;;;;5032021;28;20266;-60
2022/08/11 02:24:43;;;;;;;3.78;3.40;;;20.40;99.90;;;;;;5026526;28;20244;-61
2022/08/11 02:27:24;;;;;;;3.95;3.50;;;20.40;99.90;;;;;;5028724;28;20194;-61
2022/08/11 02:30:06;;;;;;;3.45;3.10;;;20.30;99.90;;;;;;5029882;28;20965;-61
2022/08/11 02:36:02;;;;;;;4.35;3.95;;;20.20;99.90;;;;;;5020207;28;20193;-62
2022/08/11 02:39:05;;;;;;;3.83;3.47;;;20.20;99.90;;;;;;5029993;28;20197;-61
2022/08/11 02:44:56;;;;;;;4.50;3.78;;;20.10;99.90;;;;;;5023278;28;20229;-61
2022/08/11 02:47:37;;;;;;;7.85;4.00;;;20.00;99.90;;;;;;5025779;28;20257;-62
2022/08/11 02:50:19;;;;;;;4.45;4.07;;;19.90;99.90;;;;;;5028155;28;20335;-62
2022/08/11 02:53:13;;;;;;;5.10;3.35;;;19.80;99.90;;;;;;5027035;28;20274;-61
2022/08/11 02:56:02;;;;;;;3.80;3.38;;;19.70;99.90;;;;;;5027475;28;20265;-61
2022/08/11 03:02:00;;;;;;;5.95;3.25;;;19.70;99.90;;;;;;5028467;28;20615;-62
2022/08/11 03:05:19;;;;;;;4.18;3.78;;;19.80;99.90;;;;;;5021186;28;20221;-63
2022/08/11 03:08:09;;;;;;;6.72;4.15;;;19.80;99.90;;;;;;5015446;28;20199;-61
2022/08/11 03:17:12;;;;;;;5.60;4.22;;;19.70;99.90;;;;;;5023196;28;20201;-62
2022/08/11 03:19:59;;;;;;;3.92;3.53;;;19.70;99.90;;;;;;5029412;28;20194;-61
2022/08/11 03:22:56;;;;;;;3.95;3.60;;;19.70;99.90;;;;;;5031498;28;20557;-61
2022/08/11 03:25:53;;;;;;;5.75;4.28;;;19.70;99.90;;;;;;5024763;28;20248;-61
2022/08/11 03:28:27;;;;;;;4.05;3.75;;;19.60;99.90;;;;;;5022172;28;20191;-61
2022/08/11 03:31:00;;;;;;;3.88;3.42;;;19.50;99.90;;;;;;5035322;28;20232;-61
2022/08/11 03:36:27;;;;;;;3.90;3.65;;;19.30;99.90;;;;;;5038072;28;20197;-60
2022/08/11 03:39:07;;;;;;;6.75;3.40;;;19.20;99.90;;;;;;5037378;28;20183;-62
2022/08/11 03:41:56;;;;;;;5.53;4.90;;;19.00;99.90;;;;;;5036358;28;20209;-60
2022/08/11 03:44:53;;;;;;;8.80;3.90;;;19.00;99.90;;;;;;5037751;28;20675;-61
2022/08/11 03:47:30;;;;;;;4.05;3.75;;;19.10;99.90;;;;;;5028433;28;20649;-60
2022/08/11 03:50:05;;;;;;;7.60;3.45;;;19.20;99.90;;;;;;5035466;28;20180;-61
2022/08/11 03:52:33;;;;;;;4.20;3.55;;;19.20;99.90;;;;;;5027209;28;20178;-61
2022/08/11 03:55:29;;;;;;;5.00;3.45;;;19.20;99.90;;;;;;5038064;28;20198;-61
2022/08/11 03:58:25;;;;;;;3.92;3.60;;;19.20;99.90;;;;;;5029128;28;20232;-61
2022/08/11 04:00:59;;;;;;;6.28;4.00;;;19.20;99.90;;;;;;5035288;28;20175;-61
2022/08/11 04:03:52;;;;;;;3.45;3.15;;;19.20;99.90;;;;;;5037723;28;20259;-61
2022/08/11 04:06:59;;;;;;;5.20;4.03;;;19.10;99.90;;;;;;5033577;28;20776;-61
2022/08/11 04:09:55;;;;;;;3.50;3.20;;;19.00;99.90;;;;;;5034316;28;20260;-61
2022/08/11 04:12:58;;;;;;;4.43;3.88;;;19.00;99.90;;;;;;5036944;28;20189;-63
2022/08/11 04:15:59;;;;;;;4.95;4.40;;;19.00;99.90;;;;;;5028021;28;20210;-62
2022/08/11 04:18:46;;;;;;;8.63;4.20;;;18.90;99.90;;;;;;5036820;28;20194;-61
2022/08/11 04:21:50;;;;;;;4.57;3.55;;;18.90;99.90;;;;;;5047923;28;20207;-61
2022/08/11 04:24:35;;;;;;;6.68;4.22;;;18.90;99.90;;;;;;5036068;28;20209;-61
2022/08/11 04:27:10;;;;;;;4.65;3.83;;;18.90;99.90;;;;;;5046429;28;20199;-61
2022/08/11 04:29:54;;;;;;;5.03;4.43;;;18.90;99.90;;;;;;5035452;28;20188;-61
2022/08/11 04:32:36;;;;;;;5.45;3.75;;;18.80;99.90;;;;;;5038754;28;20187;-60
2022/08/11 04:35:24;;;;;;;6.50;4.15;;;18.80;99.90;;;;;;5030873;28;20182;-60
2022/08/11 04:38:23;;;;;;;5.00;4.00;;;18.60;99.90;;;;;;5035093;28;20647;-60
2022/08/11 04:41:29;;;;;;;7.93;5.03;;;18.60;99.90;;;;;;5025860;28;20237;-60
2022/08/11 04:44:25;;;;;;;7.07;4.63;;;18.60;99.90;;;;;;5019887;28;20280;-60
2022/08/11 04:47:09;;;;;;;4.40;4.00;;;18.50;99.90;;;;;;5027480;28;20233;-63
2022/08/11 05:01:53;;;;;;;5.60;4.25;;;18.20;99.90;;;;;;5029418;28;20210;-60
2022/08/11 05:05:30;;;;;;;5.13;4.40;;;18.20;99.90;;;;;;5030195;28;20220;-60
2022/08/11 05:08:46;;;;;;;5.72;4.53;;;18.20;99.90;;;;;;4973040;28;20201;-61
2022/08/11 05:11:33;;;;;;;6.03;4.40;;;18.20;99.90;;;;;;4930271;28;20644;-63
2022/08/11 05:37:21;;;;;;;5.28;4.80;;;18.60;99.90;;;;;;5032219;28;20201;-60
2022/08/11 05:56:52;;;;;;;6.20;5.05;;;19.00;99.90;;;;;;5028353;28;20204;-60
2022/08/11 05:59:20;;;;;;;6.32;5.10;;;19.00;99.90;;;;;;5031894;28;20229;-60
2022/08/11 06:01:46;;;;;;;5.38;4.82;;;19.00;99.90;;;;;;5031968;28;20225;-60
2022/08/11 06:04:23;;;;;;;5.57;4.97;;;19.10;99.90;;;;;;5021895;28;20207;-60
2022/08/11 06:06:51;;;;;;;9.60;5.75;;;19.10;99.90;;;;;;5031995;28;20277;-60
2022/08/11 06:09:30;;;;;;;7.57;4.50;;;19.40;99.90;;;;;;5028702;28;20580;-60
2022/08/11 06:11:59;;;;;;;6.45;5.35;;;19.70;99.90;;;;;;5033769;28;20782;-60
2022/08/11 06:14:27;;;;;;;6.03;5.07;;;19.70;99.90;;;;;;5030626;28;20179;-60
2022/08/11 06:16:58;;;;;;;7.75;5.25;;;19.60;99.90;;;;;;5032139;28;20680;-60
2022/08/11 06:19:32;;;;;;;5.85;4.82;;;19.40;99.90;;;;;;5033040;28;20200;-60
2022/08/11 06:22:00;;;;;;;7.03;5.20;;;19.40;99.90;;;;;;5033285;28;20181;-60
2022/08/11 06:24:28;;;;;;;7.20;4.43;;;19.40;99.90;;;;;;5033044;28;20218;-60
2022/08/11 06:26:55;;;;;;;7.45;5.35;;;19.50;99.90;;;;;;5022057;28;20554;-60
2022/08/11 06:29:22;;;;;;;7.22;4.93;;;19.70;99.90;;;;;;5025913;28;20314;-60
2022/08/11 06:31:53;;;;;;;9.15;5.57;;;20.00;99.90;;;;;;5031238;28;20241;-60
2022/08/11 06:34:46;;;;;;;6.53;5.68;;;19.90;99.90;;;;;;5032199;28;20205;-60
2022/08/11 06:37:24;;;;;;;9.43;5.57;;;19.80;99.90;;;;;;5024111;28;20221;-61
2022/08/11 06:40:13;;;;;;;5.18;4.65;;;19.80;99.90;;;;;;5031203;28;20187;-60
2022/08/11 06:43:13;;;;;;;18.88;6.95;;;19.80;99.90;;;;;;5026566;28;20178;-61
2022/08/11 06:46:02;;;;;;;13.43;5.97;;;20.10;99.90;;;;;;5028740;28;20198;-60
2022/08/11 06:48:31;;;;;;;5.00;4.57;;;20.30;99.90;;;;;;5025038;28;20265;-60
2022/08/11 06:51:11;;;;;;;6.18;5.57;;;20.30;99.90;;;;;;5020679;28;20182;-60
2022/08/11 06:53:50;;;;;;;8.60;5.28;;;20.30;99.90;;;;;;5032604;28;20186;-60
2022/08/11 07:02:17;;;;;;;5.50;4.65;;;20.50;99.90;;;;;;5027224;28;20206;-60
2022/08/11 07:04:56;;;;;;;5.78;5.18;;;20.70;99.90;;;;;;5029440;28;20218;-60
2022/08/11 07:16:43;;;;;;;10.65;5.43;;;21.00;99.90;;;;;;5031731;28;20553;-60
2022/08/11 07:30:41;;;;;;;30.27;10.27;;;21.60;99.90;;;;;;5025786;28;20247;-60
2022/08/11 07:33:09;;;;;;;11.82;5.63;;;21.60;99.90;;;;;;5028786;28;20190;-60
2022/08/11 07:35:43;;;;;;;7.07;4.32;;;21.80;99.90;;;;;;5020966;28;20738;-61
2022/08/11 07:38:18;;;;;;;10.00;4.25;;;22.00;99.90;;;;;;5030967;28;20189;-60
2022/08/11 07:40:45;;;;;;;5.05;3.65;;;22.80;99.90;;;;;;5030296;28;20635;-61
2022/08/11 07:43:12;;;;;;;5.03;4.53;;;24.70;99.90;;;;;;5031825;28;20191;-61
2022/08/11 07:54:05;;;;;;;17.48;6.45;;;30.70;99.90;;;;;;5017049;28;20218;-59
2022/08/11 07:56:37;;;;;;;4.05;2.90;;;32.40;99.90;;;;;;5031888;28;20189;-59
2022/08/11 08:18:27;;;;;;;3.50;3.20;;;33.30;99.90;;;;;;5032194;28;20221;-59
2022/08/11 08:20:55;;;;;;;4.35;3.70;;;32.90;99.90;;;;;;5033529;28;20194;-58
2022/08/11 08:23:31;;;;;;;9.90;3.13;;;32.90;99.90;;;;;;5034430;28;20324;-59
2022/08/11 08:26:03;;;;;;;2.90;2.70;;;32.70;99.90;;;;;;5024124;28;20190;-60
2022/08/11 08:28:29;;;;;;;4.28;3.88;;;32.80;99.90;;;;;;5034036;28;20708;-59
2022/08/11 08:30:56;;;;;;;4.65;4.20;;;34.20;99.90;;;;;;5035168;28;20182;-59
2022/08/11 08:33:29;;;;;;;4.25;3.30;;;34.10;99.90;;;;;;5005474;28;20200;-60
2022/08/11 08:36:10;;;;;;;5.40;3.63;;;34.50;99.90;;;;;;5029187;28;20194;-62
2022/08/11 08:38:45;;;;;;;15.88;7.07;;;33.70;99.90;;;;;;5035273;28;20272;-59
2022/08/11 08:41:13;;;;;;;3.17;2.95;;;33.40;99.90;;;;;;5030167;28;20193;-59
2022/08/11 08:43:42;;;;;;;3.88;2.88;;;34.20;99.90;;;;;;5034930;28;20222;-59
2022/08/11 08:46:10;;;;;;;5.70;2.88;;;34.60;99.00;;;;;;5022607;28;20263;-60
2022/08/11 08:48:36;;;;;;;6.13;3.50;;;34.30;99.00;;;;;;5019094;28;20190;-59
2022/08/11 08:53:56;;;;;;;7.50;4.40;;;34.10;99.00;;;;;;5031398;28;20697;-59
2022/08/11 08:56:27;;;;;;;5.63;3.28;;;34.40;98.40;;;;;;5034153;28;20681;-59
2022/08/11 08:58:53;;;;;;;18.27;4.20;;;35.00;98.10;;;;;;5033806;28;20174;-59
2022/08/11 09:01:21;;;;;;;24.02;7.28;;;35.10;98.50;;;;;;5023218;28;20190;-60
2022/08/11 09:03:48;;;;;;;4.50;3.78;;;35.70;98.40;;;;;;5028686;28;20674;-59
2022/08/11 09:06:17;;;;;;;4.55;3.00;;;35.40;97.90;;;;;;5032863;28;20182;-59
2022/08/11 09:08:44;;;;;;;10.93;3.72;;;35.80;98.00;;;;;;5029176;28;20186;-60
2022/08/11 09:13:56;;;;;;;4.95;3.95;;;35.30;98.10;;;;;;5027705;28;20665;-59
2022/08/11 09:16:23;;;;;;;2.83;2.60;;;34.90;97.90;;;;;;5031246;28;20643;-59
2022/08/11 09:18:50;;;;;;;6.28;3.65;;;35.10;97.60;;;;;;5022304;28;20273;-59
2022/08/11 09:21:20;;;;;;;5.55;4.22;;;34.30;98.00;;;;;;5044548;28;20218;-59
2022/08/11 09:29:33;;;;;;;6.75;2.97;;;31.30;99.40;;;;;;4953169;29;20200;-59
2022/08/11 09:32:00;;;;;;;4.10;3.72;;;30.20;99.00;;;;;;5031785;28;20208;-60
2022/08/11 09:34:27;;;;;;;4.22;3.70;;;29.50;99.90;;;;;;5024525;28;20182;-59
2022/08/11 09:44:45;;;;;;;4.32;3.92;;;29.30;99.90;;;;;;5025091;28;20277;-59
2022/08/11 09:45:12;;;;;;;6.18;3.33;;;29.10;99.90;;;;;;5027174;28;20229;-59
2022/08/11 09:47:39;;;;;;;4.13;3.83;;;28.90;99.90;;;;;;5031610;28;20683;-60
2022/08/11 09:50:07;;;;;;;6.15;4.28;;;28.90;99.90;;;;;;5040017;28;20529;-62
2022/08/11 09:52:39;;;;;;;4.45;4.05;;;28.80;99.60;;;;;;5030960;28;20186;-59
2022/08/11 09:55:09;;;;;;;4.20;3.80;;;28.60;99.70;;;;;;5033553;28;20253;-59
2022/08/11 10:00:36;;;;;;;3.80;3.50;;;28.50;99.90;;;;;;5025798;28;20221;-60
2022/08/11 10:03:11;;;;;;;4.57;4.28;;;28.70;99.80;;;;;;5033021;28;20177;-59
2022/08/11 10:08:27;;;;;;;4.47;3.78;;;29.10;99.90;;;;;;5026122;28;20193;-58
2022/08/11 10:10:55;;;;;;;3.85;3.55;;;29.20;99.70;;;;;;5032993;28;20638;-60
2022/08/11 10:13:25;;;;;;;7.78;5.00;;;29.10;99.20;;;;;;5031799;28;20190;-60
2022/08/11 10:15:55;;;;;;;5.05;4.43;;;28.80;99.00;;;;;;5033947;28;20178;-60
2022/08/11 10:18:52;;;;;;;3.80;3.50;;;28.70;99.60;;;;;;5033056;28;20204;-59
2022/08/11 10:21:27;;;;;;;5.72;3.67;;;28.60;99.90;;;;;;5032665;28;20178;-60
2022/08/11 10:26:57;;;;;;;5.53;4.85;;;28.90;99.10;;;;;;5032503;28;20197;-59
2022/08/11 10:34:58;;;;;;;4.10;3.67;;;29.60;99.30;;;;;;5021399;28;20305;-59
2022/08/11 10:37:25;;;;;;;5.30;3.95;;;29.80;99.00;;;;;;5031468;28;20231;-59
2022/08/11 10:39:55;;;;;;;4.93;3.90;;;29.90;99.50;;;;;;5031366;28;20264;-59
2022/08/11 10:47:55;;;;;;;5.03;4.53;;;29.70;99.00;;;;;;5008920;28;20190;-60
2022/08/11 10:58:50;;;;;;;4.57;4.00;;;29.40;99.40;;;;;;5031548;28;20196;-60
2022/08/11 11:01:30;;;;;;;4.78;4.32;;;29.60;99.80;;;;;;5031710;28;20197;-60
2022/08/11 11:04:04;;;;;;;4.32;4.00;;;29.70;99.00;;;;;;5016756;28;20214;-59
2022/08/11 11:06:34;;;;;;;3.92;3.63;;;29.70;99.50;;;;;;5029098;28;20182;-59
2022/08/11 11:09:13;;;;;;;4.20;3.90;;;29.60;99.30;;;;;;5032278;28;20232;-60
2022/08/11 11:17:54;;;;;;;9.57;4.47;;;30.20;98.80;;;;;;5032257;28;20189;-59
2022/08/11 11:20:25;;;;;;;5.05;4.57;;;30.40;98.50;;;;;;5031170;28;20276;-59
2022/08/11 11:22:56;;;;;;;5.22;4.70;;;30.20;98.50;;;;;;5032020;28;20273;-60
2022/08/11 11:25:33;;;;;;;10.82;6.03;;;30.00;99.10;;;;;;5032116;28;20292;-59
2022/08/11 11:28:05;;;;;;;4.18;3.80;;;29.90;98.80;;;;;;5027211;28;20212;-60
2022/08/11 11:30:57;;;;;;;5.75;3.80;;;29.80;98.70;;;;;;5032289;28;20182;-60
2022/08/11 11:34:06;;;;;;;4.10;3.58;;;30.10;99.00;;;;;;5004290;28;20204;-60
2022/08/11 11:36:47;;;;;;;4.72;3.80;;;30.30;97.90;;;;;;5025568;28;20190;-59
2022/08/11 11:39:19;;;;;;;3.53;3.20;;;30.40;97.70;;;;;;5024379;28;20610;-60
2022/08/11 11:41:47;;;;;;;4.85;3.30;;;30.40;97.10;;;;;;5031575;28;20643;-59
2022/08/11 11:44:14;;;;;;;3.83;3.42;;;30.40;97.20;;;;;;5031485;28;20536;-59
2022/08/11 11:46:40;;;;;;;7.18;4.07;;;30.40;97.20;;;;;;5031307;28;20178;-60
2022/08/11 11:49:08;;;;;;;3.90;3.38;;;30.30;97.60;;;;;;5029656;28;20264;-59
2022/08/11 11:51:35;;;;;;;4.78;4.05;;;30.40;97.40;;;;;;5034625;28;20193;-60
2022/08/11 11:54:03;;;;;;;3.72;3.42;;;30.60;97.70;;;;;;5034808;28;20178;-60
2022/08/11 11:56:30;;;;;;;3.50;3.20;;;30.70;97.30;;;;;;5035890;28;20516;-59
2022/08/11 12:01:44;;;;;;;4.05;3.67;;;30.80;96.90;;;;;;5026973;28;20204;-60
2022/08/11 12:04:12;;;;;;;4.40;4.05;;;30.90;96.90;;;;;;5018200;28;20217;-59
2022/08/11 12:06:40;;;;;;;5.32;3.92;;;30.60;97.10;;;;;;5033925;28;20190;-60
2022/08/11 12:09:06;;;;;;;3.75;3.45;;;30.70;97.80;;;;;;5035232;28;20229;-60
2022/08/11 12:14:19;;;;;;;4.10;3.80;;;31.00;95.40;;;;;;5024572;28;20233;-60
2022/08/11 12:16:46;;;;;;;5.47;3.53;;;31.10;95.70;;;;;;5034174;28;20578;-59
2022/08/11 12:19:15;;;;;;;3.42;3.22;;;31.10;95.00;;;;;;5025496;28;20206;-59
2022/08/11 12:27:19;;;;;;;4.50;4.10;;;31.10;95.30;;;;;;5034484;28;20212;-59
2022/08/11 12:27:20;;;;;;;3.53;3.30;;;30.90;95.00;;;;;;5025521;28;20232;-59
2022/08/11 12:29:55;;;;;;;3.97;3.40;;;30.50;94.60;;;;;;5018202;28;20182;-60
2022/08/11 12:32:23;;;;;;;5.18;3.58;;;30.60;95.30;;;;;;5034476;28;20214;-59
2022/08/11 12:34:49;;;;;;;4.95;3.63;;;30.80;95.10;;;;;;5034723;28;20185;-59
2022/08/11 12:37:22;;;;;;;3.60;3.40;;;30.90;95.00;;;;;;5025396;28;20282;-59
2022/08/11 12:45:29;;;;;;;4.00;3.63;;;31.10;94.90;;;;;;5034808;28;20256;-60
2022/08/11 12:53:43;;;;;;;3.88;3.55;;;30.50;94.60;;;;;;5030516;28;20208;-61
2022/08/11 13:07:13;;;;;;;4.45;3.35;;;30.90;94.30;;;;;;5034113;28;20244;-59
2022/08/11 13:09:40;;;;;;;3.92;3.30;;;31.10;94.30;;;;;;5014614;28;20191;-59
2022/08/11 13:14:50;;;;;;;4.13;3.78;;;31.30;93.80;;;;;;5025579;28;20216;-61
2022/08/11 13:17:20;;;;;;;3.22;3.03;;;31.30;93.90;;;;;;5027060;28;21932;-59
2022/08/11 13:19:46;;;;;;;6.28;3.55;;;31.10;93.40;;;;;;5018869;28;20249;-59
2022/08/11 13:22:18;;;;;;;2.70;2.50;;;31.10;93.30;;;;;;5038641;28;20187;-59
2022/08/11 13:24:45;;;;;;;5.32;3.55;;;31.20;93.20;;;;;;5027035;28;20268;-60
2022/08/11 13:27:13;;;;;;;3.08;2.83;;;31.20;93.50;;;;;;5032647;28;20182;-60
2022/08/11 13:29:45;;;;;;;3.30;3.05;;;30.90;93.50;;;;;;5014094;28;20285;-59
2022/08/11 13:32:12;;;;;;;7.00;4.65;;;30.70;93.50;;;;;;5036323;28;20175;-60
2022/08/11 13:34:41;;;;;;;3.80;3.60;;;30.70;93.40;;;;;;5024101;28;20209;-60
2022/08/11 13:37:10;;;;;;;3.58;3.17;;;30.70;93.50;;;;;;5033149;28;20186;-59
2022/08/11 13:39:39;;;;;;;3.50;3.10;;;30.70;93.60;;;;;;5048442;28;20205;-59
2022/08/11 13:42:05;;;;;;;3.58;3.20;;;31.10;93.70;;;;;;5029830;28;20738;-59
2022/08/11 13:44:34;;;;;;;2.72;2.63;;;31.20;93.50;;;;;;5027638;28;20296;-59
2022/08/11 13:47:03;;;;;;;3.05;2.75;;;31.00;93.60;;;;;;5023747;28;20265;-59
2022/08/11 13:49:32;;;;;;;3.22;3.00;;;31.10;93.60;;;;;;5024005;28;20289;-59
2022/08/11 13:51:59;;;;;;;3.92;3.63;;;31.20;94.00;;;;;;5033238;28;20182;-59
2022/08/11 13:54:27;;;;;;;3.30;3.00;;;31.30;93.50;;;;;;5033313;28;20557;-59
2022/08/11 13:56:56;;;;;;;3.42;3.13;;;31.20;93.30;;;;;;5032155;28;20564;-59
2022/08/11 13:59:22;;;;;;;4.10;3.20;;;31.20;93.40;;;;;;5032647;28;20638;-60
2022/08/11 14:01:56;;;;;;;4.28;3.50;;;31.20;93.40;;;;;;5022906;28;20202;-59
2022/08/11 14:04:32;;;;;;;4.22;3.60;;;31.40;93.60;;;;;;5029644;28;20202;-60
2022/08/11 14:07:02;;;;;;;2.70;2.50;;;31.20;93.50;;;;;;5024823;28;20177;-59
2022/08/11 14:09:33;;;;;;;6.07;3.58;;;31.30;93.50;;;;;;5029307;28;20671;-59
2022/08/11 14:14:55;;;;;;;3.40;3.10;;;31.10;93.60;;;;;;5032327;28;20673;-59
2022/08/11 14:17:21;;;;;;;3.85;3.55;;;31.10;93.90;;;;;;5032824;28;20265;-59
2022/08/11 14:19:52;;;;;;;5.40;3.35;;;31.20;93.20;;;;;;5023436;28;20212;-59
2022/08/11 14:22:20;;;;;;;3.35;3.08;;;31.10;93.20;;;;;;5024864;28;20190;-59
2022/08/11 14:24:50;;;;;;;4.50;4.10;;;30.90;93.30;;;;;;5030509;28;20267;-60
2022/08/11 14:27:17;;;;;;;4.28;3.20;;;30.90;93.30;;;;;;5022549;28;20174;-59
2022/08/11 14:29:44;;;;;;;5.72;3.40;;;30.80;93.50;;;;;;5033056;28;20178;-60
2022/08/11 14:32:13;;;;;;;5.18;4.57;;;30.80;93.90;;;;;;5024647;28;20178;-60
2022/08/11 14:34:41;;;;;;;4.15;3.78;;;31.00;93.50;;;;;;5032502;28;20182;-60
2022/08/11 14:37:10;;;;;;;7.43;3.25;;;31.00;92.90;;;;;;5032998;28;20545;-60
2022/08/11 14:39:49;;;;;;;3.80;3.53;;;31.00;93.40;;;;;;5031176;28;20178;-60
2022/08/11 14:48:00;;;;;;;3.97;3.67;;;31.50;93.20;;;;;;5021442;28;20217;-60
2022/08/11 14:50:27;;;;;;;5.20;4.55;;;31.60;93.50;;;;;;5027066;28;20183;-63
2022/08/11 14:53:03;;;;;;;3.83;3.38;;;31.40;93.50;;;;;;5032615;28;20639;-59
2022/08/11 14:58:22;;;;;;;5.20;4.57;;;31.10;93.50;;;;;;5022368;28;20336;-59
2022/08/11 15:00:52;;;;;;;4.88;4.38;;;31.00;93.40;;;;;;5031611;28;20209;-59
2022/08/11 15:03:20;;;;;;;4.60;4.20;;;31.10;93.70;;;;;;5027829;28;20178;-58
2022/08/11 15:06:02;;;;;;;4.03;3.72;;;31.20;93.40;;;;;;5031678;28;20253;-59
2022/08/11 15:14:04;;;;;;;6.22;4.40;;;31.40;94.00;;;;;;5032640;28;20280;-58
2022/08/11 15:19:18;;;;;;;4.63;4.30;;;31.30;93.40;;;;;;5027765;28;20347;-59
2022/08/11 15:24:29;;;;;;;4.30;4.10;;;31.20;93.70;;;;;;5026103;28;20244;-58
2022/08/11 15:38:01;;;;;;;4.53;4.15;;;31.80;93.80;;;;;;5030758;28;20247;-59
2022/08/11 15:46:18;;;;;;;4.57;4.20;;;31.70;93.40;;;;;;5020538;28;20554;-59
2022/08/11 15:48:56;;;;;;;10.10;6.53;;;31.50;93.50;;;;;;5026817;28;20197;-62
2022/08/11 15:51:55;;;;;;;4.45;4.05;;;31.50;92.60;;;;;;5031461;28;20189;-59
2022/08/11 15:54:29;;;;;;;4.28;3.95;;;31.30;92.90;;;;;;5027624;28;20284;-59
2022/08/11 15:56:57;;;;;;;4.35;3.95;;;31.40;93.00;;;;;;5023424;28;20177;-59
2022/08/11 16:05:01;;;;;;;4.18;3.72;;;31.40;93.50;;;;;;5019875;28;20286;-59
2022/08/11 16:07:31;;;;;;;3.50;3.20;;;31.40;92.70;;;;;;5026262;28;20193;-62
2022/08/11 16:10:20;;;;;;;7.40;4.38;;;31.50;92.70;;;;;;5030135;28;20189;-60
2022/08/11 16:16:13;;;;;;;3.80;3.50;;;31.40;92.80;;;;;;5018616;28;20214;-59
2022/08/11 16:18:56;;;;;;;3.40;3.17;;;31.20;92.10;;;;;;5019635;28;20213;-58
2022/08/11 16:21:26;;;;;;;4.50;4.10;;;31.20;92.60;;;;;;5023845;28;20244;-60
2022/08/11 16:23:55;;;;;;;13.85;10.32;;;31.20;91.60;;;;;;5031163;28;20340;-58
2022/08/11 16:26:22;;;;;;;6.13;5.43;;;31.10;91.50;;;;;;5031369;28;20182;-58
2022/08/11 16:28:51;;;;;;;4.03;3.67;;;31.10;92.00;;;;;;5011934;28;20175;-58
2022/08/11 16:31:20;;;;;;;4.38;3.97;;;31.20;91.80;;;;;;5029745;28;20182;-58
2022/08/11 16:33:47;;;;;;;4.10;3.75;;;31.20;91.40;;;;;;5028433;28;20295;-58
2022/08/11 16:39:01;;;;;;;5.25;4.78;;;31.20;91.20;;;;;;5033284;28;20209;-58
2022/08/11 16:47:04;;;;;;;5.18;3.75;;;31.00;91.40;;;;;;5029305;28;20213;-63
2022/08/11 16:49:42;;;;;;;13.68;5.93;;;31.00;91.50;;;;;;5033522;28;20214;-60
2022/08/11 16:52:10;;;;;;;12.13;9.15;;;30.90;91.30;;;;;;5029460;28;20182;-61
2022/08/11 16:54:37;;;;;;;4.38;4.03;;;30.90;91.50;;;;;;5026919;28;20182;-59
2022/08/11 16:59:53;;;;;;;3.67;3.42;;;31.00;91.30;;;;;;5023221;28;20186;-59
2022/08/11 17:14:08;;;;;;;5.97;4.93;;;30.80;91.10;;;;;;5030050;28;20196;-59
2022/08/11 17:16:39;;;;;;;3.63;3.33;;;30.80;91.40;;;;;;5032874;28;20182;-59
2022/08/11 17:19:17;;;;;;;4.30;3.75;;;30.90;91.60;;;;;;5034186;28;20576;-60
2022/08/11 17:24:35;;;;;;;4.00;3.63;;;30.80;91.50;;;;;;5033799;28;20588;-59
2022/08/11 17:27:02;;;;;;;3.67;3.38;;;30.70;91.50;;;;;;5033586;28;20220;-59
2022/08/11 17:29:30;;;;;;;3.90;3.60;;;30.80;91.80;;;;;;5030307;28;20278;-59
2022/08/11 17:37:31;;;;;;;6.15;3.53;;;30.60;91.30;;;;;;5029520;28;20205;-59
2022/08/11 17:40:02;;;;;;;6.60;4.13;;;30.60;91.40;;;;;;5031946;28;20228;-63
2022/08/11 17:50:48;;;;;;;4.72;3.95;;;30.40;92.00;;;;;;5033586;28;20243;-59
2022/08/11 18:01:47;;;;;;;4.60;3.42;;;30.30;93.10;;;;;;5033647;28;20247;-60
2022/08/11 18:04:14;;;;;;;5.32;3.92;;;30.30;93.00;;;;;;5026016;28;20215;-59
2022/08/11 18:06:41;;;;;;;4.55;4.20;;;30.20;93.10;;;;;;5025396;28;20304;-60
